Thorhild, Canada
Current Conditions -  °F | °C
As of 6:00 AM on Friday 24 Oct 2014 (Local Time) from CYED Reporting Station
Clear Clear  
Wind Chill: 30°   Ceiling: Unl
Heat Index: 37°   Visibility: 9mi
Dew Point: 30°   Wind: 10mph
Humidity: 75%   Direction: 270°W
Pressure: 29.72"   Gusts: 18mph
Location:  54.15°N, 113.12°W
Report Text: CYED 241200Z AUTO 27009G16KT 9SM CLR 03/M01 A2972 RMK SLP082
Loading
Personal Weather Stations






























Interactive Weather Map
Tropical Storm Tracking
New forecast layout! Learn more

10-Day Weather Forecast

Advertisements
Track Severe Weather on mobile